createdAt,value
2022-11-09T00:00:51.277Z,2.50
2022-11-09T00:01:51.194Z,2.10
2022-11-09T00:02:51.174Z,2.00
2022-11-09T00:03:51.229Z,2.30
2022-11-09T00:04:51.151Z,2.40
2022-11-09T00:05:51.157Z,2.00
2022-11-09T00:06:51.277Z,1.80
2022-11-09T00:07:51.122Z,1.90
2022-11-09T00:08:51.111Z,1.80
2022-11-09T00:09:51.211Z,2.10
2022-11-09T00:10:51.083Z,1.90
2022-11-09T00:11:51.068Z,1.80
2022-11-09T00:12:51.922Z,2.00
2022-11-09T00:13:51.039Z,1.90
2022-11-09T00:14:51.021Z,2.10
2022-11-09T00:15:51.099Z,1.90
2022-11-09T00:16:50.996Z,1.80
2022-11-09T00:17:50.979Z,1.70
2022-11-09T00:18:51.038Z,1.90
2022-11-09T00:19:50.951Z,1.80
2022-11-09T00:20:50.967Z,1.80
2022-11-09T00:21:50.977Z,1.80
2022-11-09T00:22:50.920Z,1.70
2022-11-09T00:23:50.898Z,1.90
2022-11-09T00:24:50.974Z,1.90
2022-11-09T00:25:50.867Z,1.80
2022-11-09T00:26:50.884Z,2.00
2022-11-09T00:27:50.893Z,1.90
2022-11-09T00:28:50.839Z,2.00
2022-11-09T00:29:50.817Z,1.80
2022-11-09T00:30:50.910Z,2.00
2022-11-09T00:31:50.792Z,2.30
2022-11-09T00:32:50.789Z,2.30
2022-11-09T00:33:50.792Z,2.10
2022-11-09T00:34:50.776Z,2.20
2022-11-09T00:35:50.744Z,2.40
2022-11-09T00:36:50.826Z,2.70
2022-11-09T00:37:50.839Z,2.70
2022-11-09T00:38:50.723Z,2.40
2022-11-09T00:39:50.731Z,2.60
2022-11-09T00:40:50.672Z,2.90
2022-11-09T00:41:50.689Z,2.80
2022-11-09T00:42:50.694Z,2.90
2022-11-09T00:43:50.676Z,3.60
2022-11-09T00:44:50.622Z,3.40
2022-11-09T00:45:50.628Z,3.10
2022-11-09T00:46:50.637Z,3.50
2022-11-09T00:47:50.616Z,2.90
2022-11-09T00:48:50.650Z,3.80
2022-11-09T00:49:50.575Z,3.30
2022-11-09T00:50:50.563Z,3.70
2022-11-09T00:51:50.564Z,3.50
2022-11-09T00:52:50.520Z,3.60
2022-11-09T00:53:50.518Z,3.60
2022-11-09T00:54:50.567Z,3.40
2022-11-09T00:55:50.491Z,3.10
2022-11-09T00:56:50.473Z,3.70
2022-11-09T00:57:50.571Z,3.20
2022-11-09T00:58:50.449Z,3.10
2022-11-09T00:59:50.446Z,3.30
2022-11-09T01:00:50.531Z,3.20
2022-11-09T01:01:50.432Z,2.60
2022-11-09T01:02:50.393Z,2.90
2022-11-09T01:03:50.417Z,3.20
2022-11-09T01:04:50.359Z,3.00
2022-11-09T01:05:50.365Z,3.10
2022-11-09T01:06:50.516Z,3.10
2022-11-09T01:07:50.331Z,3.50
2022-11-09T01:08:50.311Z,3.30
2022-11-09T01:09:50.334Z,3.60
2022-11-09T01:10:50.283Z,3.50
2022-11-09T01:11:50.289Z,3.50
2022-11-09T01:12:50.367Z,3.90
2022-11-09T01:13:50.271Z,3.80
2022-11-09T01:14:50.236Z,3.70
2022-11-09T01:15:50.232Z,3.80
2022-11-09T01:16:50.212Z,3.70
2022-11-09T01:17:50.286Z,4.10
2022-11-09T01:18:50.262Z,4.00
2022-11-09T01:19:50.212Z,4.50
2022-11-09T01:20:50.151Z,3.70
2022-11-09T01:21:50.163Z,3.90
2022-11-09T01:22:50.128Z,4.20
2022-11-09T01:23:50.182Z,4.40
2022-11-09T01:24:50.164Z,4.00
2022-11-09T01:25:50.103Z,3.80
2022-11-09T01:26:50.110Z,4.10
2022-11-09T01:27:50.075Z,4.20
2022-11-09T01:28:50.123Z,4.30
2022-11-09T01:29:50.057Z,4.50
2022-11-09T01:30:50.024Z,4.30
2022-11-09T01:31:50.019Z,4.40
2022-11-09T01:32:50.007Z,4.30
2022-11-09T01:33:50.006Z,4.70
2022-11-09T01:34:49.997Z,4.50
2022-11-09T01:35:50.054Z,4.50
2022-11-09T01:36:49.952Z,4.30
2022-11-09T01:37:49.963Z,4.20
2022-11-09T01:38:49.944Z,4.20
2022-11-09T01:39:49.946Z,4.80
2022-11-09T01:40:49.906Z,4.00
2022-11-09T01:41:49.914Z,5.00
2022-11-09T01:42:49.870Z,4.20
2022-11-09T01:43:49.864Z,4.50
2022-11-09T01:44:49.837Z,4.50
2022-11-09T01:45:49.959Z,4.20
2022-11-09T01:46:49.821Z,4.70
2022-11-09T01:47:49.827Z,4.70
2022-11-09T01:48:49.804Z,4.50
2022-11-09T01:49:49.798Z,4.70
2022-11-09T01:50:49.950Z,5.20
2022-11-09T01:51:49.774Z,5.00
2022-11-09T01:52:49.739Z,5.10
2022-11-09T01:53:49.802Z,4.70
2022-11-09T01:54:49.705Z,4.40
2022-11-09T01:55:49.706Z,4.70
2022-11-09T01:56:49.741Z,4.50
2022-11-09T01:57:49.705Z,4.60
2022-11-09T01:58:49.654Z,4.30
2022-11-09T01:59:49.729Z,4.80
2022-11-09T02:00:49.681Z,4.30
2022-11-09T02:01:49.731Z,4.20
2022-11-09T02:02:49.612Z,4.80
2022-11-09T02:03:49.627Z,4.20
2022-11-09T02:04:49.584Z,4.00
2022-11-09T02:05:49.582Z,3.50
2022-11-09T02:06:49.664Z,3.90
2022-11-09T02:07:49.602Z,3.80
2022-11-09T02:08:49.522Z,3.80
2022-11-09T02:09:49.572Z,3.90
2022-11-09T02:10:49.597Z,3.40
2022-11-09T02:11:49.495Z,3.50
2022-11-09T02:12:49.546Z,3.40
2022-11-09T02:13:49.522Z,3.40
2022-11-09T02:14:49.439Z,3.40
2022-11-09T02:15:49.439Z,3.40
2022-11-09T02:16:49.457Z,3.80
2022-11-09T02:17:49.434Z,3.40
2022-11-09T02:18:49.425Z,3.50
2022-11-09T02:19:49.415Z,3.70
2022-11-09T02:20:49.411Z,3.60
2022-11-09T02:21:49.362Z,3.10
2022-11-09T02:22:49.350Z,3.30
2022-11-09T02:23:49.436Z,3.50
2022-11-09T02:24:51.784Z,3.60
2022-11-09T02:25:49.372Z,3.80
2022-11-09T02:26:49.317Z,3.50
2022-11-09T02:27:49.296Z,4.00
2022-11-09T02:28:49.267Z,3.40
2022-11-09T02:29:49.298Z,3.80
2022-11-09T02:30:49.308Z,3.50
2022-11-09T02:31:49.259Z,3.50
2022-11-09T02:32:49.244Z,3.20
2022-11-09T02:33:49.212Z,3.90
2022-11-09T02:34:49.267Z,3.60
2022-11-09T02:35:49.180Z,3.90
2022-11-09T02:36:49.170Z,3.80
2022-11-09T02:37:49.171Z,3.70
2022-11-09T02:38:49.179Z,3.70
2022-11-09T02:39:49.146Z,4.00
2022-11-09T02:40:49.146Z,3.50
2022-11-09T02:41:49.132Z,3.70
2022-11-09T02:42:49.078Z,3.20
2022-11-09T02:43:49.072Z,3.60
2022-11-09T02:44:49.082Z,3.40
2022-11-09T02:45:49.089Z,3.60
2022-11-09T02:46:49.034Z,3.50
2022-11-09T02:47:49.087Z,3.80
2022-11-09T02:48:48.995Z,3.70
2022-11-09T02:49:48.998Z,3.90
2022-11-09T02:50:49.025Z,3.50
2022-11-09T02:51:49.028Z,3.40
2022-11-09T02:52:48.963Z,3.40
2022-11-09T02:53:48.938Z,3.50
2022-11-09T02:54:48.928Z,3.30
2022-11-09T02:55:48.921Z,3.40
2022-11-09T02:56:48.961Z,3.40
2022-11-09T02:57:48.897Z,2.90
2022-11-09T02:58:48.889Z,3.20
2022-11-09T02:59:48.876Z,3.00
2022-11-09T03:00:48.880Z,3.00
2022-11-09T03:01:48.852Z,2.70
2022-11-09T03:02:48.846Z,2.90
2022-11-09T03:03:48.810Z,3.40
2022-11-09T03:04:48.908Z,2.90
2022-11-09T03:05:48.821Z,2.80
2022-11-09T03:06:48.828Z,2.80
2022-11-09T03:07:48.850Z,3.00
2022-11-09T03:08:48.729Z,2.70
2022-11-09T03:09:48.759Z,3.10
2022-11-09T03:10:48.704Z,2.60
2022-11-09T03:11:48.733Z,3.10
2022-11-09T03:12:48.726Z,2.80
2022-11-09T03:13:48.729Z,2.80
2022-11-09T03:14:48.660Z,2.60
2022-11-09T03:15:48.674Z,2.40
2022-11-09T03:16:50.768Z,2.70
2022-11-09T03:17:48.650Z,2.70
2022-11-09T03:18:48.761Z,2.70
2022-11-09T03:19:48.626Z,2.50
2022-11-09T03:20:48.584Z,2.50
2022-11-09T03:21:48.594Z,2.40
2022-11-09T03:22:48.572Z,2.40
2022-11-09T03:23:48.565Z,2.20
2022-11-09T03:24:48.568Z,2.40
2022-11-09T03:25:48.532Z,2.40
2022-11-09T03:26:48.507Z,2.10
2022-11-09T03:27:48.493Z,2.10
2022-11-09T03:28:48.499Z,2.30
2022-11-09T03:29:48.509Z,2.30
2022-11-09T03:30:48.445Z,2.10
2022-11-09T03:31:48.479Z,2.40
2022-11-09T03:32:50.708Z,2.00
2022-11-09T03:33:48.434Z,2.10
2022-11-09T03:34:48.397Z,2.30
2022-11-09T03:35:48.433Z,2.20
2022-11-09T03:36:48.382Z,2.30
2022-11-09T03:37:48.426Z,2.10
2022-11-09T03:38:48.361Z,2.50
2022-11-09T03:39:48.335Z,2.30
2022-11-09T03:40:48.340Z,2.50
2022-11-09T03:41:48.333Z,2.60
2022-11-09T03:42:48.309Z,3.00
2022-11-09T03:43:48.368Z,2.70
2022-11-09T03:44:48.278Z,2.80
2022-11-09T03:45:48.281Z,3.00
2022-11-09T03:46:48.269Z,3.10
2022-11-09T03:47:48.253Z,2.90
2022-11-09T03:48:48.223Z,2.60
2022-11-09T03:49:48.215Z,2.50
2022-11-09T03:50:48.180Z,2.50
2022-11-09T03:51:48.239Z,2.80
2022-11-09T03:52:48.155Z,2.90
2022-11-09T03:53:48.177Z,2.90
2022-11-09T03:54:48.129Z,2.70
2022-11-09T03:55:48.131Z,2.90
2022-11-09T03:56:48.147Z,3.20
2022-11-09T03:57:48.155Z,3.10
2022-11-09T03:58:48.077Z,3.30
2022-11-09T03:59:48.079Z,3.20
2022-11-09T04:00:48.057Z,3.30
2022-11-09T04:01:48.085Z,2.80
2022-11-09T04:02:48.107Z,3.10
2022-11-09T04:03:48.026Z,2.90
2022-11-09T04:04:48.022Z,3.30
2022-11-09T04:05:48.001Z,3.00
2022-11-09T04:06:48.022Z,3.10
2022-11-09T04:07:48.037Z,3.20
2022-11-09T04:08:51.266Z,3.10
2022-11-09T04:09:48.020Z,3.80
2022-11-09T04:10:47.944Z,3.10
2022-11-09T04:11:47.930Z,3.40
2022-11-09T04:12:47.968Z,3.40
2022-11-09T04:13:47.938Z,3.40
2022-11-09T04:14:47.873Z,3.40
2022-11-09T04:15:47.865Z,3.40
2022-11-09T04:16:47.866Z,3.80
2022-11-09T04:17:47.858Z,3.30
2022-11-09T04:18:47.815Z,3.50
2022-11-09T04:19:47.849Z,3.20
2022-11-09T04:20:47.792Z,3.20
2022-11-09T04:21:47.829Z,3.40
2022-11-09T04:22:47.786Z,3.40
2022-11-09T04:23:47.763Z,3.20
2022-11-09T04:24:47.791Z,3.50
2022-11-09T04:25:47.738Z,3.60
2022-11-09T04:26:47.734Z,3.50
2022-11-09T04:27:47.718Z,3.50
2022-11-09T04:28:47.710Z,3.50
2022-11-09T04:29:47.706Z,3.60
2022-11-09T04:30:47.790Z,3.60
2022-11-09T04:31:47.654Z,3.40
2022-11-09T04:32:47.634Z,3.20
2022-11-09T04:33:47.713Z,3.40
2022-11-09T04:34:47.645Z,3.40
2022-11-09T04:35:47.605Z,3.10
2022-11-09T04:36:47.627Z,3.20
2022-11-09T04:37:47.561Z,3.40
2022-11-09T04:38:47.667Z,3.50
2022-11-09T04:39:47.543Z,3.20
2022-11-09T04:40:47.566Z,3.50
2022-11-09T04:41:47.527Z,3.60
2022-11-09T04:42:47.555Z,3.80
2022-11-09T04:43:47.535Z,4.00
2022-11-09T04:44:47.495Z,3.90
2022-11-09T04:45:47.469Z,4.50
2022-11-09T04:46:47.467Z,4.00
2022-11-09T04:47:47.437Z,4.30
2022-11-09T04:48:47.481Z,4.20
2022-11-09T04:49:47.446Z,4.40
2022-11-09T04:50:47.453Z,4.20
2022-11-09T04:51:47.386Z,4.30
2022-11-09T04:52:47.452Z,4.30
2022-11-09T04:53:47.404Z,4.20
2022-11-09T04:54:47.375Z,4.10
2022-11-09T04:55:47.383Z,3.90
2022-11-09T04:56:47.343Z,3.70
2022-11-09T04:57:47.328Z,3.90
2022-11-09T04:58:47.336Z,3.90
2022-11-09T04:59:47.320Z,3.90
2022-11-09T05:00:47.362Z,3.60
2022-11-09T05:01:47.261Z,3.80
2022-11-09T05:02:47.264Z,3.60
2022-11-09T05:03:47.264Z,3.50
2022-11-09T05:04:47.234Z,3.70
2022-11-09T05:05:48.712Z,3.40
2022-11-09T05:06:47.260Z,3.50
2022-11-09T05:07:47.169Z,3.40
2022-11-09T05:08:47.239Z,3.40
2022-11-09T05:09:47.146Z,3.40
2022-11-09T05:10:47.183Z,3.20
2022-11-09T05:11:47.157Z,3.10
2022-11-09T05:12:47.146Z,3.00
2022-11-09T05:13:47.097Z,3.00
2022-11-09T05:14:47.094Z,3.00
2022-11-09T05:15:47.081Z,2.90
2022-11-09T05:16:47.070Z,3.20
2022-11-09T05:17:47.072Z,2.70
2022-11-09T05:18:47.072Z,2.80
2022-11-09T05:19:47.014Z,3.10
2022-11-09T05:20:47.021Z,2.80
2022-11-09T05:21:47.031Z,2.90
2022-11-09T05:22:46.991Z,2.90
2022-11-09T05:23:46.990Z,2.80
2022-11-09T05:24:47.022Z,2.90
2022-11-09T05:25:46.934Z,3.00
2022-11-09T05:26:46.949Z,3.30
2022-11-09T05:27:46.917Z,3.40
2022-11-09T05:28:46.965Z,3.20
2022-11-09T05:29:46.938Z,2.80
2022-11-09T05:30:46.887Z,3.00
2022-11-09T05:31:52.060Z,2.80
2022-11-09T05:32:46.885Z,2.90
2022-11-09T05:33:46.833Z,2.70
2022-11-09T05:34:46.837Z,2.70
2022-11-09T05:35:46.900Z,2.80
2022-11-09T05:36:46.813Z,2.70
2022-11-09T05:37:46.781Z,2.40
2022-11-09T05:38:46.838Z,2.80
2022-11-09T05:39:46.764Z,2.50
2022-11-09T05:40:46.759Z,2.70
2022-11-09T05:41:46.774Z,2.40
2022-11-09T05:42:46.736Z,2.60
2022-11-09T05:43:46.704Z,2.70
2022-11-09T05:44:46.701Z,2.70
2022-11-09T05:45:46.679Z,2.40
2022-11-09T05:46:46.675Z,3.00
2022-11-09T05:47:46.681Z,3.10
2022-11-09T05:48:46.688Z,2.80
2022-11-09T05:49:46.619Z,2.70
2022-11-09T05:50:46.627Z,2.60
2022-11-09T05:51:46.629Z,2.40
2022-11-09T05:52:46.609Z,2.80
2022-11-09T05:53:47.236Z,2.50
2022-11-09T05:54:46.605Z,2.70
2022-11-09T05:55:46.544Z,2.50
2022-11-09T05:56:46.540Z,2.90
2022-11-09T05:57:46.558Z,2.70
2022-11-09T05:58:46.516Z,2.50
2022-11-09T05:59:46.522Z,2.60
2022-11-09T06:00:46.516Z,2.50
2022-11-09T06:01:46.509Z,2.50
2022-11-09T06:02:46.465Z,2.30
2022-11-09T06:03:46.501Z,2.40
2022-11-09T06:04:46.447Z,2.40
2022-11-09T06:05:46.446Z,2.50
2022-11-09T06:06:46.481Z,2.50
2022-11-09T06:07:46.391Z,2.80
2022-11-09T06:08:46.392Z,2.70
2022-11-09T06:09:46.436Z,2.50
2022-11-09T06:10:46.311Z,2.80
2022-11-09T06:11:46.320Z,2.90
2022-11-09T06:12:46.385Z,2.60
2022-11-09T06:13:46.256Z,2.60
2022-11-09T06:14:46.260Z,2.50
2022-11-09T06:15:46.244Z,2.40
2022-11-09T06:16:46.232Z,2.60
2022-11-09T06:17:46.257Z,2.70
2022-11-09T06:18:46.205Z,2.70
2022-11-09T06:19:46.191Z,2.60
2022-11-09T06:20:46.220Z,3.00
2022-11-09T06:21:46.148Z,3.00
2022-11-09T06:22:46.159Z,2.70
2022-11-09T06:23:46.157Z,2.90
2022-11-09T06:24:46.138Z,2.90
2022-11-09T06:25:46.122Z,3.00
2022-11-09T06:26:46.104Z,3.00
2022-11-09T06:27:46.075Z,2.90
2022-11-09T06:28:46.074Z,3.10
2022-11-09T06:29:46.083Z,3.00
2022-11-09T06:30:46.070Z,2.90
2022-11-09T06:31:46.031Z,2.90
2022-11-09T06:32:46.016Z,2.90
2022-11-09T06:33:46.099Z,3.10
2022-11-09T06:34:46.004Z,3.10
2022-11-09T06:35:46.004Z,2.70
2022-11-09T06:36:46.020Z,2.60
2022-11-09T06:37:45.946Z,2.40
2022-11-09T06:38:45.944Z,3.20
2022-11-09T06:39:45.955Z,2.60
2022-11-09T06:40:45.922Z,2.70
2022-11-09T06:41:47.547Z,2.90
2022-11-09T06:42:45.988Z,2.70
2022-11-09T06:43:45.869Z,3.10
2022-11-09T06:44:45.868Z,2.90
2022-11-09T06:45:45.851Z,2.80
2022-11-09T06:46:45.891Z,2.70
2022-11-09T06:47:45.863Z,3.10
2022-11-09T06:48:48.371Z,2.70
2022-11-09T06:49:45.799Z,3.10
2022-11-09T06:50:45.786Z,2.90
2022-11-09T06:51:45.807Z,3.10
2022-11-09T06:52:45.766Z,3.40
2022-11-09T06:53:45.768Z,3.00
2022-11-09T06:54:45.792Z,3.20
2022-11-09T06:55:50.348Z,3.00
2022-11-09T06:56:45.716Z,2.90
2022-11-09T06:57:45.695Z,3.20
2022-11-09T06:58:45.683Z,3.10
2022-11-09T06:59:54.695Z,3.10
2022-11-09T07:00:45.668Z,3.20
2022-11-09T07:01:45.654Z,3.00
2022-11-09T07:02:45.635Z,3.00
2022-11-09T07:03:45.601Z,3.00
2022-11-09T07:04:45.611Z,2.90
2022-11-09T07:05:45.647Z,3.20
2022-11-09T07:06:45.614Z,3.20
2022-11-09T07:07:45.566Z,3.10
2022-11-09T07:08:45.555Z,3.50
2022-11-09T07:09:45.630Z,3.40
2022-11-09T07:10:45.524Z,3.50
2022-11-09T07:11:45.556Z,3.30
2022-11-09T07:12:45.507Z,3.40
2022-11-09T07:13:45.518Z,3.70
2022-11-09T07:14:45.483Z,3.60
2022-11-09T07:15:45.481Z,3.30
2022-11-09T07:16:45.461Z,3.30
2022-11-09T07:17:45.504Z,4.10
2022-11-09T07:18:45.430Z,3.70
2022-11-09T07:19:45.448Z,4.10
2022-11-09T07:20:45.391Z,4.40
2022-11-09T07:21:45.378Z,4.40
2022-11-09T07:22:45.403Z,4.20
2022-11-09T07:23:45.384Z,4.10
2022-11-09T07:24:45.357Z,4.10
2022-11-09T07:25:45.388Z,4.00
2022-11-09T07:26:45.320Z,3.90
2022-11-09T07:27:45.297Z,4.10
2022-11-09T07:28:45.295Z,4.00
2022-11-09T07:29:45.294Z,4.20
2022-11-09T07:30:45.269Z,4.40
2022-11-09T07:31:45.254Z,4.30
2022-11-09T07:33:45.244Z,4.40
2022-11-09T07:34:45.258Z,4.30
2022-11-09T07:35:45.220Z,4.20
2022-11-09T07:36:45.182Z,3.80
2022-11-09T07:37:45.175Z,4.40
2022-11-09T07:38:45.191Z,4.50
2022-11-09T07:39:45.133Z,4.30
2022-11-09T07:40:45.137Z,4.50
2022-11-09T07:41:45.255Z,4.30
2022-11-09T07:42:45.119Z,3.90
2022-11-09T07:43:45.082Z,4.30
2022-11-09T07:44:45.083Z,4.50
2022-11-09T07:45:45.057Z,4.00
2022-11-09T07:46:45.099Z,4.70
2022-11-09T07:47:45.105Z,4.40
2022-11-09T07:48:45.078Z,4.60
2022-11-09T07:49:45.004Z,4.90
2022-11-09T07:50:45.005Z,4.50
2022-11-09T07:51:45.029Z,4.30
2022-11-09T07:52:44.990Z,4.50
2022-11-09T07:53:44.994Z,4.30
2022-11-09T07:54:48.265Z,4.40
2022-11-09T07:55:44.935Z,4.10
2022-11-09T07:56:44.946Z,4.50
2022-11-09T07:57:44.900Z,4.20
2022-11-09T07:58:44.971Z,4.40
2022-11-09T07:59:44.937Z,4.10
2022-11-09T08:00:44.871Z,4.10
2022-11-09T08:01:44.908Z,3.90
2022-11-09T08:02:44.914Z,3.80
2022-11-09T08:03:44.827Z,3.80
2022-11-09T08:04:44.817Z,3.40
2022-11-09T08:05:44.864Z,3.50
2022-11-09T08:06:44.838Z,3.50
2022-11-09T08:07:44.767Z,3.70
2022-11-09T08:08:44.786Z,3.70
2022-11-09T08:09:44.742Z,3.70
2022-11-09T08:10:44.745Z,3.40
2022-11-09T08:11:44.753Z,3.50
2022-11-09T08:12:44.766Z,3.50
2022-11-09T08:13:44.723Z,3.40
2022-11-09T08:14:44.712Z,3.40
2022-11-09T08:15:44.678Z,3.20
2022-11-09T08:16:44.665Z,3.50
2022-11-09T08:17:44.684Z,3.10
2022-11-09T08:18:44.659Z,2.90
2022-11-09T08:19:44.616Z,3.10
2022-11-09T08:20:44.608Z,2.60
2022-11-09T08:21:44.635Z,2.70
2022-11-09T08:22:44.592Z,2.40
2022-11-09T08:23:44.621Z,2.30
2022-11-09T08:24:44.608Z,2.50
2022-11-09T08:25:44.583Z,2.60
2022-11-09T08:26:44.515Z,2.90
2022-11-09T08:27:44.670Z,2.50
2022-11-09T08:28:44.505Z,2.60
2022-11-09T08:29:44.534Z,2.50
2022-11-09T08:30:44.502Z,2.70
2022-11-09T08:31:44.470Z,2.40
2022-11-09T08:32:44.454Z,2.60
2022-11-09T08:33:44.477Z,2.50
2022-11-09T08:34:44.413Z,2.50
2022-11-09T08:35:47.986Z,2.30
2022-11-09T08:36:44.448Z,2.50
2022-11-09T08:37:44.385Z,2.80
2022-11-09T08:38:44.371Z,2.60
2022-11-09T08:39:44.363Z,2.50
2022-11-09T08:40:44.398Z,2.50
2022-11-09T08:41:44.343Z,2.50
2022-11-09T08:42:44.305Z,2.60
2022-11-09T08:43:44.338Z,2.60
2022-11-09T08:44:44.288Z,2.80
2022-11-09T08:45:44.289Z,2.80
2022-11-09T08:46:44.331Z,3.00
2022-11-09T08:47:44.278Z,3.60
2022-11-09T08:48:44.250Z,3.00
2022-11-09T08:49:44.279Z,3.00
2022-11-09T08:50:44.204Z,2.80
2022-11-09T08:51:44.248Z,3.20
2022-11-09T08:52:44.201Z,3.60
2022-11-09T08:53:44.175Z,3.90
2022-11-09T08:54:44.160Z,3.90
2022-11-09T08:55:49.201Z,3.40
2022-11-09T08:56:44.134Z,3.70
2022-11-09T08:57:44.168Z,4.10
2022-11-09T08:58:44.233Z,3.20
2022-11-09T08:59:44.104Z,3.40
2022-11-09T09:00:44.081Z,3.60
2022-11-09T09:01:44.145Z,3.90
2022-11-09T09:02:44.170Z,3.40
2022-11-09T09:03:44.052Z,3.60
2022-11-09T09:04:44.108Z,3.20
2022-11-09T09:05:44.039Z,3.20
2022-11-09T09:06:44.079Z,3.20
2022-11-09T09:07:43.994Z,3.30
2022-11-09T09:08:44.106Z,3.20
2022-11-09T09:09:43.981Z,3.10
2022-11-09T09:10:43.947Z,3.00
2022-11-09T09:11:43.966Z,3.60
2022-11-09T09:12:43.921Z,6.00
2022-11-09T09:13:43.990Z,3.60
2022-11-09T09:14:43.902Z,3.50
2022-11-09T09:15:43.895Z,3.70
2022-11-09T09:16:43.869Z,5.70
2022-11-09T09:17:43.870Z,4.80
2022-11-09T09:18:43.842Z,3.70
2022-11-09T09:19:49.682Z,3.10
2022-11-09T09:20:43.824Z,3.80
2022-11-09T09:21:43.829Z,3.40
2022-11-09T09:22:43.831Z,3.30
2022-11-09T09:23:43.825Z,3.30
2022-11-09T09:24:43.821Z,3.10
2022-11-09T09:25:43.764Z,3.40
2022-11-09T09:26:43.729Z,3.10
2022-11-09T09:27:43.747Z,2.90
2022-11-09T09:28:43.707Z,2.70
2022-11-09T09:29:43.713Z,2.60
2022-11-09T09:30:43.720Z,2.60
2022-11-09T09:31:43.679Z,2.50
2022-11-09T09:32:43.653Z,2.50
2022-11-09T09:33:43.687Z,2.60
2022-11-09T09:34:43.626Z,2.40
2022-11-09T09:35:43.678Z,2.80
2022-11-09T09:36:47.977Z,2.30
2022-11-09T09:37:43.601Z,2.30
2022-11-09T09:38:43.570Z,2.40
2022-11-09T09:39:43.572Z,2.50
2022-11-09T09:40:43.551Z,2.20
2022-11-09T09:41:43.574Z,2.70
2022-11-09T09:42:43.526Z,2.40
2022-11-09T09:43:44.010Z,2.50
2022-11-09T09:44:43.493Z,2.30
2022-11-09T09:45:43.508Z,2.90
2022-11-09T09:46:43.526Z,2.30
2022-11-09T09:47:43.522Z,2.40
2022-11-09T09:48:43.452Z,2.40
2022-11-09T09:49:43.485Z,2.50
2022-11-09T09:50:43.442Z,2.30
2022-11-09T09:51:43.414Z,2.30
2022-11-09T09:52:54.195Z,2.10
2022-11-09T09:53:43.402Z,2.30
2022-11-09T09:54:43.360Z,2.10
2022-11-09T09:55:43.386Z,2.20
2022-11-09T09:56:43.362Z,2.50
2022-11-09T09:57:43.379Z,2.10
2022-11-09T09:58:43.307Z,2.10
2022-11-09T09:59:43.332Z,2.20
2022-11-09T10:00:43.277Z,2.40
2022-11-09T10:01:43.307Z,2.30
2022-11-09T10:02:43.302Z,2.00
2022-11-09T10:03:43.303Z,2.10
2022-11-09T10:04:43.246Z,2.10
2022-11-09T10:05:43.246Z,1.90
2022-11-09T10:06:43.255Z,2.10
2022-11-09T10:07:43.208Z,2.40
2022-11-09T10:08:43.206Z,2.50
2022-11-09T10:09:43.194Z,2.30
2022-11-09T10:10:43.156Z,2.30
2022-11-09T10:11:43.153Z,2.40
2022-11-09T10:12:43.191Z,2.40
2022-11-09T10:13:43.126Z,2.50
2022-11-09T10:14:43.123Z,2.50
2022-11-09T10:15:43.137Z,2.00
2022-11-09T10:16:43.097Z,2.30
2022-11-09T10:17:43.117Z,2.20
2022-11-09T10:18:43.056Z,2.00
2022-11-09T10:19:43.114Z,2.20
2022-11-09T10:20:43.071Z,2.10
2022-11-09T10:21:43.019Z,2.10
2022-11-09T10:22:43.013Z,1.80
2022-11-09T10:23:43.057Z,1.90
2022-11-09T10:24:58.712Z,2.10
2022-11-09T10:26:03.153Z,1.70
2022-11-09T10:26:42.973Z,1.70
2022-11-09T10:27:42.949Z,1.50
2022-11-09T10:29:13.942Z,1.80
2022-11-09T10:29:42.943Z,1.90
2022-11-09T10:30:42.922Z,1.80
2022-11-09T10:31:42.889Z,1.60
2022-11-09T10:32:42.930Z,1.60
2022-11-09T10:33:42.862Z,1.70
2022-11-09T10:34:42.838Z,1.70
2022-11-09T10:35:42.955Z,1.90
2022-11-09T10:36:42.838Z,1.60
2022-11-09T10:37:42.825Z,1.70
2022-11-09T10:38:42.839Z,1.80
2022-11-09T10:39:42.791Z,1.30
2022-11-09T10:40:42.767Z,1.40
2022-11-09T10:41:42.784Z,1.60
2022-11-09T10:42:42.743Z,1.40
2022-11-09T10:43:42.746Z,1.60
2022-11-09T10:44:42.703Z,1.40
2022-11-09T10:45:42.713Z,1.50
2022-11-09T10:46:42.740Z,1.40
2022-11-09T10:47:42.734Z,1.80
2022-11-09T10:48:42.652Z,1.80
2022-11-09T10:49:42.650Z,1.40
2022-11-09T10:50:42.653Z,1.50
2022-11-09T10:51:42.632Z,1.40
2022-11-09T10:52:47.321Z,1.40
2022-11-09T10:53:42.620Z,1.40
2022-11-09T10:54:42.579Z,1.20
2022-11-09T10:55:42.667Z,1.40
2022-11-09T10:57:04.960Z,1.40
2022-11-09T10:57:42.558Z,1.40
2022-11-09T10:58:42.566Z,1.50
2022-11-09T10:59:42.601Z,1.40
2022-11-09T11:00:42.501Z,1.20
2022-11-09T11:01:42.543Z,1.40
2022-11-09T11:02:42.524Z,1.20
2022-11-09T11:03:42.557Z,1.80
2022-11-09T11:04:42.439Z,1.40
2022-11-09T11:05:42.496Z,1.20
2022-11-09T11:06:42.533Z,1.60
2022-11-09T11:07:42.458Z,1.40
2022-11-09T11:08:42.423Z,1.40
2022-11-09T11:09:42.410Z,1.30
2022-11-09T11:10:42.402Z,1.60
2022-11-09T11:11:42.368Z,1.80
2022-11-09T11:12:42.360Z,1.50
2022-11-09T11:13:42.384Z,1.70
2022-11-09T11:14:42.355Z,1.40
2022-11-09T11:15:42.317Z,1.60
2022-11-09T11:16:42.287Z,1.50
2022-11-09T11:17:42.290Z,1.40
2022-11-09T11:18:42.280Z,1.60
2022-11-09T11:19:42.323Z,1.50
2022-11-09T11:20:42.277Z,1.50
2022-11-09T11:21:42.229Z,1.50
2022-11-09T11:22:42.266Z,1.30
2022-11-09T11:23:42.199Z,1.30
2022-11-09T11:24:42.190Z,1.90
2022-11-09T11:25:42.240Z,1.40
2022-11-09T11:26:42.166Z,1.30
2022-11-09T11:27:42.148Z,1.70
2022-11-09T11:28:42.188Z,1.30
2022-11-09T11:29:42.111Z,1.60
2022-11-09T11:30:42.114Z,1.40
2022-11-09T11:31:42.120Z,1.20
2022-11-09T11:32:47.075Z,1.30
2022-11-09T11:33:42.081Z,1.40
2022-11-09T11:35:01.276Z,1.60
2022-11-09T11:35:42.061Z,1.50
2022-11-09T11:36:42.066Z,1.30
2022-11-09T11:37:42.064Z,1.90
2022-11-09T11:38:42.008Z,1.40
2022-11-09T11:39:41.984Z,1.20
2022-11-09T11:40:42.024Z,1.40
2022-11-09T11:41:41.957Z,1.20
2022-11-09T11:42:41.990Z,1.20
2022-11-09T11:43:41.957Z,1.20
2022-11-09T11:44:41.964Z,1.40
2022-11-09T11:45:42.488Z,1.40
2022-11-09T11:46:41.919Z,1.50
2022-11-09T11:47:41.911Z,1.20
2022-11-09T11:48:41.910Z,1.40
2022-11-09T11:49:41.904Z,1.30
2022-11-09T11:50:41.857Z,1.40
2022-11-09T11:51:41.821Z,1.50
2022-11-09T11:52:41.838Z,1.50
2022-11-09T11:53:43.503Z,1.70
2022-11-09T11:54:41.832Z,1.40
2022-11-09T11:55:41.784Z,1.50
2022-11-09T11:56:41.776Z,1.70
2022-11-09T11:57:41.746Z,1.40
2022-11-09T11:58:41.806Z,1.60
2022-11-09T11:59:41.720Z,1.60
2022-11-09T12:00:41.730Z,1.30
2022-11-09T12:01:41.734Z,1.50
2022-11-09T12:02:41.787Z,1.60
2022-11-09T12:03:41.673Z,1.70
2022-11-09T12:04:41.726Z,1.60
2022-11-09T12:05:41.684Z,1.90
2022-11-09T12:06:44.121Z,2.30
2022-11-09T12:07:41.624Z,1.70
2022-11-09T12:08:41.680Z,1.90
2022-11-09T12:09:41.709Z,1.50
2022-11-09T12:10:41.631Z,1.90
2022-11-09T12:11:41.610Z,1.90
2022-11-09T12:12:41.652Z,1.90
2022-11-09T12:13:44.586Z,1.80
2022-11-09T12:14:41.585Z,1.90
2022-11-09T12:15:41.633Z,1.50
2022-11-09T12:16:41.568Z,1.50
2022-11-09T12:17:41.501Z,2.00
2022-11-09T12:18:41.499Z,1.80
2022-11-09T12:19:41.462Z,2.00
2022-11-09T12:20:41.506Z,1.90
2022-11-09T12:21:41.548Z,1.70
2022-11-09T12:22:41.478Z,1.90
2022-11-09T12:23:41.433Z,1.80
2022-11-09T12:24:41.406Z,1.60
2022-11-09T12:25:41.391Z,1.60
2022-11-09T12:26:41.416Z,1.80
2022-11-09T12:27:41.401Z,1.80
2022-11-09T12:28:41.358Z,1.70
2022-11-09T12:29:41.333Z,1.70
2022-11-09T12:30:41.350Z,1.60
2022-11-09T12:31:41.347Z,1.50
2022-11-09T12:32:41.331Z,1.60
2022-11-09T12:33:43.404Z,1.80
2022-11-09T12:34:41.284Z,1.60
2022-11-09T12:35:41.310Z,1.70
2022-11-09T12:36:41.451Z,1.90
2022-11-09T12:37:41.246Z,1.40
2022-11-09T12:38:41.224Z,1.60
2022-11-09T12:39:41.224Z,1.70
2022-11-09T12:40:41.233Z,1.50
2022-11-09T12:41:41.194Z,1.70
2022-11-09T12:42:41.252Z,1.70
2022-11-09T12:43:41.155Z,1.40
2022-11-09T12:44:41.169Z,1.70
2022-11-09T12:45:41.187Z,1.60
2022-11-09T12:46:41.113Z,1.80
2022-11-09T12:47:41.099Z,1.50
2022-11-09T12:48:41.133Z,1.50
2022-11-09T12:49:41.068Z,1.80
2022-11-09T12:50:41.076Z,1.60
2022-11-09T12:51:41.128Z,1.60
2022-11-09T12:52:41.044Z,1.60
2022-11-09T12:53:41.106Z,1.50
2022-11-09T12:54:41.067Z,1.60
2022-11-09T12:55:40.989Z,1.70
2022-11-09T12:56:40.985Z,1.80
2022-11-09T12:57:40.964Z,1.50
2022-11-09T12:58:40.955Z,1.60
2022-11-09T12:59:41.057Z,2.00
2022-11-09T13:00:40.946Z,1.50
2022-11-09T13:01:40.997Z,1.50
2022-11-09T13:02:40.940Z,1.70
2022-11-09T13:03:40.889Z,2.10
2022-11-09T13:04:40.949Z,2.00
2022-11-09T13:05:41.099Z,1.30
2022-11-09T13:06:40.887Z,1.70
2022-11-09T13:07:40.847Z,1.70
2022-11-09T13:08:40.829Z,1.40
2022-11-09T13:09:45.032Z,2.10
2022-11-09T13:10:40.818Z,1.40
2022-11-09T13:11:40.823Z,1.60
2022-11-09T13:12:40.782Z,1.60
2022-11-09T13:13:40.774Z,1.60
2022-11-09T13:14:40.766Z,2.00
2022-11-09T13:15:40.721Z,1.50
2022-11-09T13:16:40.726Z,2.30
2022-11-09T13:17:40.742Z,1.40
2022-11-09T13:18:45.325Z,1.70
2022-11-09T13:19:40.684Z,1.60